Time;durP1;ratioP1;P1;durP2;ratioP2;P2;SDS_P1;SDS_P2;PMS_P1;PMS_P2;Temp;Humidity;BMP_temperature;BMP_pressure;BME280_temperature;BME280_humidity;BME280_pressure;Samples;Min_cycle;Max_cycle;Signal;HPM_P1;HPM_P2
2022/03/24 00:06:02;;;;;;;;;;;;;;;;;;;;;
2022/03/24 00:11:59;;;;;;;;;;;;;;;;;;;;;
2022/03/24 00:37:52;;;;;;;;;;;7.30;75.60;;;;;;6219160;23;19924;-85
2022/03/24 00:40:23;;;;;;;;;;;7.30;75.60;;;;;;6191663;23;19904;-85
2022/03/24 00:42:53;;;;;;;;;;;7.30;75.80;;;;;;6167536;23;19909;-85
2022/03/24 00:45:19;;;;;;;;;;;7.30;75.90;;;;;;6192610;23;19904;-86
2022/03/24 00:47:45;;;;;;;;;;;7.30;75.90;;;;;;6191996;23;19995;-86
2022/03/24 00:50:11;;;;;;;;;;;7.20;75.90;;;;;;6192833;23;19962;-85
2022/03/24 00:52:45;;;;;;;;;;;7.20;76.00;;;;;;6217247;23;19959;-86
2022/03/24 00:55:17;;;;;;;;;;;7.20;76.10;;;;;;6219081;22;19915;-84
2022/03/24 00:57:46;;;;;;;;;;;7.10;76.20;;;;;;6219116;23;19927;-85
2022/03/24 01:00:18;;;;;;;;;;;7.10;76.30;;;;;;6210912;23;19990;-85
2022/03/24 01:02:49;;;;;;;;;;;7.10;76.60;;;;;;6219090;23;19911;-86
2022/03/24 01:08:06;;;;;;;;;;;7.00;76.70;;;;;;6218509;23;20229;-85
2022/03/24 01:10:35;;;;;;;;;;;7.00;76.90;;;;;;6191997;23;20231;-86
2022/03/24 01:13:01;;;;;;;;;;;7.00;77.10;;;;;;6167170;23;19908;-85
2022/03/24 01:15:27;;;;;;;;;;;7.00;77.30;;;;;;6191627;23;19926;-86
2022/03/24 01:17:58;;;;;;;;;;;6.90;77.40;;;;;;6191071;23;19904;-86
2022/03/24 01:20:27;;;;;;;;;;;6.90;77.60;;;;;;6167395;23;19931;-85
2022/03/24 01:22:58;;;;;;;;;;;6.90;77.80;;;;;;6191521;23;19935;-86
2022/03/24 01:25:27;;;;;;;;;;;6.90;77.90;;;;;;6191339;23;19995;-85
2022/03/24 01:27:53;;;;;;;;;;;6.80;77.90;;;;;;6191135;23;19954;-85
2022/03/24 01:30:22;;;;;;;;;;;6.80;77.90;;;;;;6190692;23;19964;-85
2022/03/24 01:32:48;;;;;;;;;;;6.80;77.90;;;;;;6191122;23;20303;-88
2022/03/24 01:35:16;;;;;;;;;;;6.80;77.90;;;;;;6191199;23;19987;-84
2022/03/24 01:37:42;;;;;;;;;;;6.70;77.80;;;;;;6218112;23;20292;-85
2022/03/24 01:40:11;;;;;;;;;;;6.70;77.90;;;;;;6191333;23;20364;-85
2022/03/24 01:42:37;;;;;;;;;;;6.70;78.00;;;;;;6191214;23;19904;-86
2022/03/24 01:45:06;;;;;;;;;;;6.60;78.00;;;;;;6166315;23;19912;-85
2022/03/24 01:47:34;;;;;;;;;;;6.60;78.00;;;;;;6190734;23;19904;-85
2022/03/24 01:50:00;;;;;;;;;;;6.60;78.10;;;;;;6190870;23;19903;-85
2022/03/24 01:52:34;;;;;;;;;;;6.60;78.10;;;;;;6190800;23;20405;-85
2022/03/24 01:55:13;;;;;;;;;;;6.50;78.10;;;;;;6191122;23;20310;-86
2022/03/24 01:57:40;;;;;;;;;;;6.50;78.10;;;;;;6191354;23;20229;-86
2022/03/24 02:00:09;;;;;;;;;;;6.40;78.20;;;;;;6217904;23;20226;-86
2022/03/24 02:02:36;;;;;;;;;;;6.40;78.40;;;;;;6217520;23;19989;-86
2022/03/24 02:05:05;;;;;;;;;;;6.40;78.40;;;;;;6191269;23;19911;-85
2022/03/24 02:07:34;;;;;;;;;;;6.40;78.40;;;;;;6167530;23;19914;-86
2022/03/24 02:10:02;;;;;;;;;;;6.40;78.50;;;;;;6166949;23;19931;-86
2022/03/24 02:12:30;;;;;;;;;;;6.40;78.50;;;;;;6191297;23;19910;-86
2022/03/24 02:14:58;;;;;;;;;;;6.30;78.70;;;;;;6194058;23;19983;-86
2022/03/24 02:17:28;;;;;;;;;;;6.30;78.80;;;;;;6169832;23;19908;-86
2022/03/24 02:19:57;;;;;;;;;;;6.30;78.90;;;;;;6192031;23;20214;-86
2022/03/24 02:22:26;;;;;;;;;;;6.20;79.10;;;;;;6190003;22;19904;-86
2022/03/24 02:24:51;;;;;;;;;;;6.20;79.20;;;;;;6218373;22;19915;-84
2022/03/24 02:27:38;;;;;;;;;;;6.20;79.40;;;;;;6218693;23;19892;-86
2022/03/24 02:30:04;;;;;;;;;;;6.20;79.50;;;;;;6217868;23;19916;-85
2022/03/24 02:32:30;;;;;;;;;;;6.10;79.60;;;;;;6213315;23;19904;-85
2022/03/24 02:34:56;;;;;;;;;;;6.10;79.80;;;;;;6203801;23;19969;-85
2022/03/24 02:37:22;;;;;;;;;;;6.10;79.90;;;;;;6190601;23;19923;-86
2022/03/24 02:39:51;;;;;;;;;;;6.00;80.60;;;;;;6191189;23;19911;-86
2022/03/24 02:42:19;;;;;;;;;;;6.00;80.10;;;;;;6190472;23;19903;-86
2022/03/24 02:44:49;;;;;;;;;;;6.00;80.10;;;;;;6190807;23;19904;-86
2022/03/24 02:47:15;;;;;;;;;;;6.00;80.30;;;;;;6190675;23;19911;-86
2022/03/24 02:49:44;;;;;;;;;;;5.90;80.30;;;;;;6190917;23;19966;-85
2022/03/24 02:52:09;;;;;;;;;;;5.90;80.40;;;;;;6190884;23;19912;-86
2022/03/24 02:54:43;;;;;;;;;;;5.90;80.70;;;;;;6190815;23;19904;-85
2022/03/24 02:57:09;;;;;;;;;;;5.90;80.90;;;;;;6190670;23;20306;-86
2022/03/24 02:59:35;;;;;;;;;;;5.90;81.00;;;;;;6190892;23;19904;-85
2022/03/24 03:02:05;;;;;;;;;;;5.80;81.00;;;;;;6190759;23;19910;-85
2022/03/24 03:04:34;;;;;;;;;;;5.80;81.20;;;;;;6191073;23;19958;-85
2022/03/24 03:07:02;;;;;;;;;;;5.80;81.30;;;;;;6190969;23;20302;-85
2022/03/24 03:09:28;;;;;;;;;;;5.80;81.50;;;;;;6217274;23;19911;-85
2022/03/24 03:11:54;;;;;;;;;;;5.70;81.60;;;;;;6191144;23;19919;-86
2022/03/24 03:14:22;;;;;;;;;;;5.80;81.70;;;;;;6192561;23;19906;-85
2022/03/24 03:16:48;;;;;;;;;;;5.80;81.80;;;;;;6192389;23;19904;-85
2022/03/24 03:19:22;;;;;;;;;;;5.70;81.80;;;;;;6192688;23;19979;-85
2022/03/24 03:21:50;;;;;;;;;;;5.70;81.90;;;;;;6192698;23;19911;-85
2022/03/24 03:24:24;;;;;;;;;;;5.60;81.90;;;;;;6192588;23;19978;-85
2022/03/24 03:27:00;;;;;;;;;;;;;;;;;;;;;
2022/03/24 03:29:26;;;;;;;;;;;5.60;82.10;;;;;;6219663;23;19987;-85
2022/03/24 03:31:55;;;;;;;;;;;5.60;82.30;;;;;;6192221;23;19966;-85
2022/03/24 03:34:24;;;;;;;;;;;5.50;82.30;;;;;;6192279;23;20401;-85
2022/03/24 03:36:50;;;;;;;;;;;5.60;82.50;;;;;;6192249;23;19916;-86
2022/03/24 03:39:15;;;;;;;;;;;5.50;82.60;;;;;;6192534;23;19939;-85
2022/03/24 03:41:44;;;;;;;;;;;5.50;82.70;;;;;;6192885;23;20212;-85
2022/03/24 03:44:18;;;;;;;;;;;5.50;82.80;;;;;;6168251;23;20311;-85
2022/03/24 03:46:46;;;;;;;;;;;5.50;82.90;;;;;;6170053;23;19919;-86
2022/03/24 03:49:21;;;;;;;;;;;5.40;82.90;;;;;;6205062;23;19892;-86
2022/03/24 03:51:52;;;;;;;;;;;5.40;82.90;;;;;;6196145;23;19907;-84
2022/03/24 03:54:19;;;;;;;;;;;5.40;83.00;;;;;;6219603;23;19914;-86
2022/03/24 03:56:51;;;;;;;;;;;5.40;83.30;;;;;;6218387;23;19931;-86
2022/03/24 03:59:20;;;;;;;;;;;5.40;83.40;;;;;;6200081;23;19908;-86
2022/03/24 04:01:45;;;;;;;;;;;5.30;83.50;;;;;;6193357;23;19904;-85
2022/03/24 04:04:14;;;;;;;;;;;5.30;83.70;;;;;;6192240;23;20284;-86
2022/03/24 04:06:42;;;;;;;;;;;5.30;83.90;;;;;;6192440;23;19954;-85
2022/03/24 04:09:34;;;;;;;;;;;5.30;84.00;;;;;;6192270;23;19912;-85
2022/03/24 04:11:59;;;;;;;;;;;5.20;84.20;;;;;;6192393;23;19946;-85
2022/03/24 04:14:30;;;;;;;;;;;5.20;84.30;;;;;;6191788;23;20253;-85
2022/03/24 04:16:58;;;;;;;;;;;5.20;84.40;;;;;;6192331;23;19904;-84
2022/03/24 04:19:25;;;;;;;;;;;5.20;84.40;;;;;;6192236;23;19987;-86
2022/03/24 04:21:51;;;;;;;;;;;5.20;84.50;;;;;;6219111;23;19904;-86
2022/03/24 04:24:19;;;;;;;;;;;5.20;84.60;;;;;;6191183;23;20238;-86
2022/03/24 04:26:47;;;;;;;;;;;5.20;84.70;;;;;;6192009;23;19954;-86
2022/03/24 04:29:13;;;;;;;;;;;5.20;85.40;;;;;;6167534;23;19912;-86
2022/03/24 04:31:39;;;;;;;;;;;5.20;84.90;;;;;;6192091;23;19912;-86
2022/03/24 04:34:05;;;;;;;;;;;5.20;85.10;;;;;;6191867;23;19911;-86
2022/03/24 04:36:30;;;;;;;;;;;5.10;85.10;;;;;;6186738;23;20333;-86
2022/03/24 04:39:01;;;;;;;;;;;5.10;85.00;;;;;;6211831;23;19905;-85
2022/03/24 04:41:29;;;;;;;;;;;5.10;85.00;;;;;;6211370;23;19911;-86
2022/03/24 04:43:55;;;;;;;;;;;5.10;85.10;;;;;;6212040;23;19904;-86
2022/03/24 04:46:21;;;;;;;;;;;5.00;85.10;;;;;;6211908;23;19943;-86
2022/03/24 04:48:50;;;;;;;;;;;5.00;85.20;;;;;;6211798;23;19911;-86
2022/03/24 04:51:37;;;;;;;;;;;4.90;85.40;;;;;;6186985;23;19923;-86
2022/03/24 04:54:04;;;;;;;;;;;4.90;85.50;;;;;;6187925;23;19992;-86
2022/03/24 04:56:32;;;;;;;;;;;4.90;85.50;;;;;;6211202;23;19904;-86
2022/03/24 04:58:58;;;;;;;;;;;4.90;85.70;;;;;;6187851;23;19928;-86
2022/03/24 05:01:23;;;;;;;;;;;4.80;85.80;;;;;;6211676;23;20350;-86
2022/03/24 05:03:51;;;;;;;;;;;4.80;86.00;;;;;;6212038;23;19932;-86
2022/03/24 05:06:21;;;;;;;;;;;4.80;86.10;;;;;;6186453;23;20330;-86
2022/03/24 05:08:46;;;;;;;;;;;4.80;86.10;;;;;;6211591;23;19904;-86
2022/03/24 05:11:23;;;;;;;;;;;4.80;86.10;;;;;;6212065;23;19919;-85
2022/03/24 05:13:51;;;;;;;;;;;4.70;86.10;;;;;;6220546;23;19915;-85
2022/03/24 05:16:20;;;;;;;;;;;4.70;86.10;;;;;;6237522;23;19892;-87
2022/03/24 05:18:53;;;;;;;;;;;4.70;86.10;;;;;;6239273;23;19893;-84
2022/03/24 05:21:21;;;;;;;;;;;4.70;86.00;;;;;;6238564;23;19893;-86
2022/03/24 05:23:47;;;;;;;;;;;4.70;85.90;;;;;;6237849;23;19915;-85
2022/03/24 05:26:20;;;;;;;;;;;4.70;85.80;;;;;;6215833;23;19943;-85
2022/03/24 05:29:06;;;;;;;;;;;4.60;85.70;;;;;;6212532;23;20337;-85
2022/03/24 05:31:34;;;;;;;;;;;4.60;85.70;;;;;;6211904;23;19944;-86
2022/03/24 05:34:02;;;;;;;;;;;4.60;85.70;;;;;;6211444;23;20334;-86
2022/03/24 05:36:27;;;;;;;;;;;4.60;85.80;;;;;;6211387;23;19927;-85
2022/03/24 05:38:58;;;;;;;;;;;4.60;85.80;;;;;;6211970;23;19908;-86
2022/03/24 05:41:27;;;;;;;;;;;4.50;85.80;;;;;;6211773;23;20177;-87
2022/03/24 05:44:03;;;;;;;;;;;4.60;86.00;;;;;;6186594;23;19908;-88
2022/03/24 05:46:40;;;;;;;;;;;4.60;86.10;;;;;;6211264;23;19908;-87
2022/03/24 05:49:08;;;;;;;;;;;4.50;86.00;;;;;;6211544;23;19912;-87
2022/03/24 05:51:34;;;;;;;;;;;4.50;86.00;;;;;;6211653;23;20230;-88
2022/03/24 05:54:03;;;;;;;;;;;4.50;85.90;;;;;;6211719;23;19904;-87
2022/03/24 05:56:29;;;;;;;;;;;4.50;85.90;;;;;;6211297;23;20221;-86
2022/03/24 05:58:56;;;;;;;;;;;4.60;86.10;;;;;;6211594;23;19904;-86
2022/03/24 06:01:30;;;;;;;;;;;4.60;86.30;;;;;;6211671;23;20208;-87
2022/03/24 06:03:57;;;;;;;;;;;4.50;86.20;;;;;;6211708;23;19904;-86
2022/03/24 06:06:22;;;;;;;;;;;4.60;86.30;;;;;;6210909;23;20239;-86
2022/03/24 06:08:58;;;;;;;;;;;4.60;86.30;;;;;;6211446;23;19905;-86
2022/03/24 06:11:26;;;;;;;;;;;4.50;86.30;;;;;;6211724;23;20358;-87
2022/03/24 06:13:57;;;;;;;;;;;4.60;86.50;;;;;;6211716;23;20307;-88
2022/03/24 06:16:27;;;;;;;;;;;4.50;86.60;;;;;;6188162;23;19919;-87
2022/03/24 06:18:53;;;;;;;;;;;4.60;86.90;;;;;;6186412;23;19915;-87
2022/03/24 06:21:23;;;;;;;;;;;4.60;87.10;;;;;;6211309;23;19905;-87
2022/03/24 06:23:50;;;;;;;;;;;4.60;87.20;;;;;;6187104;23;19908;-86
2022/03/24 06:26:20;;;;;;;;;;;4.70;87.30;;;;;;6211341;23;19905;-87
2022/03/24 06:31:50;;;;;;;;;;;4.70;87.40;;;;;;6187989;23;19912;-87
2022/03/24 06:34:23;;;;;;;;;;;4.80;87.50;;;;;;6211578;23;19904;-87
2022/03/24 06:36:51;;;;;;;;;;;4.80;87.50;;;;;;6211721;23;19916;-88
2022/03/24 06:39:22;;;;;;;;;;;4.80;87.50;;;;;;6212125;23;19908;-87
2022/03/24 06:41:48;;;;;;;;;;;4.90;87.50;;;;;;6219700;23;19905;-86
2022/03/24 06:44:14;;;;;;;;;;;4.90;87.60;;;;;;6238012;23;19923;-88
2022/03/24 06:46:40;;;;;;;;;;;5.00;87.70;;;;;;6237992;23;19893;-86
2022/03/24 06:49:06;;;;;;;;;;;5.00;87.80;;;;;;6225186;23;19909;-87
2022/03/24 06:51:35;;;;;;;;;;;5.00;87.80;;;;;;6214258;23;19920;-86
2022/03/24 06:54:07;;;;;;;;;;;5.10;87.80;;;;;;6213979;23;19952;-87
2022/03/24 06:56:38;;;;;;;;;;;5.20;87.90;;;;;;6213893;23;19908;-87
2022/03/24 06:59:06;;;;;;;;;;;5.20;87.90;;;;;;6213601;23;20270;-87
2022/03/24 07:01:32;;;;;;;;;;;5.30;87.90;;;;;;6187680;23;19908;-86
2022/03/24 07:03:58;;;;;;;;;;;5.40;87.90;;;;;;6213564;23;19911;-87
2022/03/24 07:06:23;;;;;;;;;;;5.40;87.80;;;;;;6213321;23;19915;-86
2022/03/24 07:08:49;;;;;;;;;;;5.50;87.80;;;;;;6213348;23;20389;-87
2022/03/24 07:11:17;;;;;;;;;;;5.60;87.70;;;;;;6214221;23;19919;-87
2022/03/24 07:13:45;;;;;;;;;;;5.70;87.60;;;;;;6214020;23;20311;-86
2022/03/24 07:16:13;;;;;;;;;;;5.80;87.40;;;;;;6188558;23;19962;-86
2022/03/24 07:18:39;;;;;;;;;;;5.80;87.10;;;;;;6212860;23;19905;-87
2022/03/24 07:21:14;;;;;;;;;;;5.90;86.80;;;;;;6213540;23;20300;-87
2022/03/24 07:23:54;;;;;;;;;;;6.00;86.50;;;;;;6212823;23;19975;-87
2022/03/24 07:26:27;;;;;;;;;;;6.10;86.30;;;;;;6213224;23;19904;-87
2022/03/24 07:29:06;;;;;;;;;;;6.20;86.10;;;;;;6213231;23;20407;-87
2022/03/24 07:31:36;;;;;;;;;;;6.30;85.90;;;;;;6189221;23;20307;-87
2022/03/24 07:34:02;;;;;;;;;;;6.40;85.80;;;;;;6212757;23;19984;-88
2022/03/24 07:36:28;;;;;;;;;;;6.40;85.60;;;;;;6211978;23;19916;-86
2022/03/24 07:38:57;;;;;;;;;;;6.50;85.50;;;;;;6212578;23;19915;-87
2022/03/24 07:41:25;;;;;;;;;;;6.60;85.30;;;;;;6212556;23;19904;-88
2022/03/24 07:43:53;;;;;;;;;;;6.70;85.20;;;;;;6213715;23;19955;-88
2022/03/24 07:46:21;;;;;;;;;;;6.80;85.00;;;;;;6213572;23;19904;-88
2022/03/24 07:48:57;;;;;;;;;;;6.90;84.80;;;;;;6214008;23;19911;-88
2022/03/24 07:51:23;;;;;;;;;;;7.00;84.70;;;;;;6190253;23;20234;-88
2022/03/24 07:53:53;;;;;;;;;;;7.10;84.50;;;;;;6189711;23;19908;-87
2022/03/24 07:59:36;;;;;;;;;;;7.30;84.20;;;;;;6181505;23;19927;-89
2022/03/24 08:02:27;;;;;;;;;;;7.50;84.00;;;;;;6205412;23;19904;-88
2022/03/24 08:04:53;;;;;;;;;;;7.60;83.80;;;;;;6205755;23;19915;-85
2022/03/24 08:07:22;;;;;;;;;;;7.70;83.60;;;;;;6216440;23;19904;-84
2022/03/24 08:09:50;;;;;;;;;;;7.80;83.40;;;;;;6191932;23;19947;-84
2022/03/24 08:12:19;;;;;;;;;;;8.00;83.40;;;;;;6226694;23;19913;-84
2022/03/24 08:14:47;;;;;;;;;;;8.10;83.10;;;;;;6238744;23;19908;-84
2022/03/24 08:17:16;;;;;;;;;;;8.30;83.00;;;;;;6237511;23;19904;-83
2022/03/24 08:19:44;;;;;;;;;;;8.40;82.80;;;;;;6227623;23;19910;-84
2022/03/24 08:22:12;;;;;;;;;;;8.50;82.60;;;;;;6219868;23;19951;-84
2022/03/24 08:24:38;;;;;;;;;;;8.60;82.40;;;;;;6213419;23;19911;-85
2022/03/24 08:27:07;;;;;;;;;;;8.80;82.30;;;;;;6213054;23;20227;-85
2022/03/24 08:29:42;;;;;;;;;;;8.80;82.20;;;;;;6212354;23;19911;-84
2022/03/24 08:32:08;;;;;;;;;;;8.90;82.10;;;;;;6187853;23;19916;-84
2022/03/24 08:34:43;;;;;;;;;;;;;;;;;;;;;
2022/03/24 08:37:09;;;;;;;;;;;9.20;81.80;;;;;;6209992;23;19999;-85
2022/03/24 08:39:35;;;;;;;;;;;9.30;81.50;;;;;;6191538;23;19988;-85
2022/03/24 08:42:05;;;;;;;;;;;9.40;81.10;;;;;;6191926;23;19982;-84
2022/03/24 08:44:36;;;;;;;;;;;9.60;80.30;;;;;;6192177;23;19928;-85
2022/03/24 08:47:02;;;;;;;;;;;9.70;80.10;;;;;;6167185;23;19908;-84
2022/03/24 08:49:31;;;;;;;;;;;9.80;79.90;;;;;;6192112;23;20230;-85
2022/03/24 08:51:59;;;;;;;;;;;10.00;78.50;;;;;;6191725;23;20314;-85
2022/03/24 08:54:25;;;;;;;;;;;10.10;78.40;;;;;;6191454;23;19904;-85
2022/03/24 08:56:53;;;;;;;;;;;10.30;78.40;;;;;;6191564;23;19911;-85
2022/03/24 08:59:19;;;;;;;;;;;10.40;78.00;;;;;;6167106;23;19908;-84
2022/03/24 09:01:47;;;;;;;;;;;10.50;77.80;;;;;;6166109;23;19916;-84
2022/03/24 09:04:13;;;;;;;;;;;10.60;77.70;;;;;;6166729;23;20307;-84
2022/03/24 09:06:38;;;;;;;;;;;10.70;77.30;;;;;;6191265;23;19971;-85
2022/03/24 09:09:26;;;;;;;;;;;10.80;77.10;;;;;;6191194;23;19931;-84
2022/03/24 09:14:54;;;;;;;;;;;11.00;76.80;;;;;;6155737;23;19987;-85
2022/03/24 09:17:30;;;;;;;;;;;11.20;75.60;;;;;;6130752;23;19905;-85
2022/03/24 09:19:55;;;;;;;;;;;11.40;75.10;;;;;;6130779;23;20232;-85
2022/03/24 09:22:34;;;;;;;;;;;;;;;;;;;;;
2022/03/24 09:25:02;;;;;;;;;;;11.60;74.20;;;;;;6156271;23;19995;-85
2022/03/24 09:27:30;;;;;;;;;;;11.80;73.50;;;;;;6155586;23;19987;-85
2022/03/24 09:29:55;;;;;;;;;;;12.00;72.60;;;;;;6130552;23;19995;-85
2022/03/24 09:32:23;;;;;;;;;;;12.10;72.30;;;;;;6130600;23;20364;-85
2022/03/24 09:34:54;;;;;;;;;;;12.20;71.70;;;;;;6130645;23;19977;-85
2022/03/24 09:37:22;;;;;;;;;;;12.30;71.80;;;;;;6209824;23;19920;-85
2022/03/24 09:39:48;;;;;;;;;;;12.40;71.80;;;;;;6191453;23;19982;-85
2022/03/24 09:42:42;;;;;;;;;;;12.50;71.70;;;;;;6166956;23;19990;-85
2022/03/24 09:45:11;;;;;;;;;;;12.60;71.50;;;;;;6192821;23;19904;-85
2022/03/24 09:47:38;;;;;;;;;;;12.70;71.10;;;;;;6196086;23;19908;-86
2022/03/24 09:50:10;;;;;;;;;;;12.80;71.30;;;;;;6209551;23;19908;-85
2022/03/24 09:52:38;;;;;;;;;;;12.90;70.70;;;;;;6243392;23;19939;-85
2022/03/24 09:55:32;;;;;;;;;;;13.00;69.70;;;;;;6216443;23;19912;-85
2022/03/24 09:58:10;;;;;;;;;;;;;;;;;;;;;
2022/03/24 10:03:27;;;;;;;;;;;13.40;65.10;;;;;;6201958;23;19930;-85
2022/03/24 10:06:04;;;;;;;;;;;13.50;65.80;;;;;;6191773;23;19908;-85
2022/03/24 10:08:32;;;;;;;;;;;13.60;65.90;;;;;;6191316;23;19908;-85
2022/03/24 10:11:00;;;;;;;;;;;13.60;65.80;;;;;;6191316;23;19942;-86
2022/03/24 10:13:53;;;;;;;;;;;13.70;64.90;;;;;;6216222;23;19904;-86
2022/03/24 10:16:40;;;;;;;;;;;13.80;64.30;;;;;;6191211;23;19911;-85
2022/03/24 10:19:06;;;;;;;;;;;13.90;64.80;;;;;;6191169;23;20383;-85
2022/03/24 10:21:42;;;;;;;;;;;14.00;64.90;;;;;;6190566;23;19931;-85
2022/03/24 10:24:15;;;;;;;;;;;14.10;64.00;;;;;;6215171;23;19908;-85
2022/03/24 10:26:55;;;;;;;;;;;14.20;62.20;;;;;;6190803;23;19975;-85
2022/03/24 10:29:24;;;;;;;;;;;14.30;62.70;;;;;;6167018;23;19946;-85
2022/03/24 10:31:59;;;;;;;;;;;14.40;63.10;;;;;;6214687;23;19927;-85
2022/03/24 10:34:31;;;;;;;;;;;14.40;63.50;;;;;;6191051;23;19987;-85
2022/03/24 10:37:17;;;;;;;;;;;;;;;;;;;;;
2022/03/24 10:40:03;;;;;;;;;;;14.40;64.00;;;;;;6187171;23;20409;-85
2022/03/24 10:42:37;;;;;;;;;;;14.50;63.20;;;;;;6211197;23;20362;-85
2022/03/24 10:45:25;;;;;;;;;;;14.60;60.50;;;;;;6186912;23;20319;-86
2022/03/24 10:48:06;;;;;;;;;;;;;;;;;;;;;
2022/03/24 10:51:00;;;;;;;;;;;14.80;60.90;;;;;;6186196;23;19999;-85
2022/03/24 10:53:42;;;;;;;;;;;14.90;60.50;;;;;;6191714;23;19911;-85
2022/03/24 10:56:44;;;;;;;;;;;15.00;59.30;;;;;;6210662;23;19905;-85
2022/03/24 10:59:10;;;;;;;;;;;15.10;59.10;;;;;;6204780;23;19939;-83
2022/03/24 11:01:57;;;;;;;;;;;15.10;58.60;;;;;;6210818;23;19913;-85
2022/03/24 11:04:24;;;;;;;;;;;15.20;58.90;;;;;;6186938;23;19911;-85
2022/03/24 11:06:53;;;;;;;;;;;15.20;59.10;;;;;;6210776;23;19946;-85
2022/03/24 11:09:22;;;;;;;;;;;15.30;56.90;;;;;;6187262;23;20231;-85
2022/03/24 11:11:48;;;;;;;;;;;15.40;56.50;;;;;;6210875;23;19904;-85
2022/03/24 11:14:15;;;;;;;;;;;15.50;56.80;;;;;;6186819;23;20307;-85
2022/03/24 11:16:41;;;;;;;;;;;15.50;57.20;;;;;;6211283;23;19926;-85
2022/03/24 11:19:34;;;;;;;;;;;15.60;57.30;;;;;;6211576;23;20371;-85
2022/03/24 11:22:01;;;;;;;;;;;15.60;57.10;;;;;;6211188;23;19958;-85
2022/03/24 11:24:27;;;;;;;;;;;15.70;57.20;;;;;;6211334;23;19991;-85
2022/03/24 11:26:53;;;;;;;;;;;15.80;57.20;;;;;;6213180;23;19911;-85
2022/03/24 11:29:22;;;;;;;;;;;15.80;57.80;;;;;;6213035;23;20267;-85
2022/03/24 11:31:57;;;;;;;;;;;15.80;58.10;;;;;;6214413;23;19905;-85
2022/03/24 11:37:17;;;;;;;;;;;15.90;58.30;;;;;;6229205;23;19947;-85
2022/03/24 11:40:07;;;;;;;;;;;16.00;58.50;;;;;;6218346;22;19911;-84
2022/03/24 11:42:34;;;;;;;;;;;16.00;58.40;;;;;;6217373;23;19900;-85
2022/03/24 11:45:18;;;;;;;;;;;16.10;56.80;;;;;;6241728;23;19932;-85
2022/03/24 11:48:05;;;;;;;;;;;16.20;57.20;;;;;;6199493;23;19908;-85
2022/03/24 11:50:47;;;;;;;;;;;16.30;56.90;;;;;;6193094;23;19931;-85
2022/03/24 11:53:31;;;;;;;;;;;16.30;56.50;;;;;;6193779;23;19911;-85
2022/03/24 11:56:03;;;;;;;;;;;16.40;55.70;;;;;;6192519;23;20038;-83
2022/03/24 11:58:29;;;;;;;;;;;16.40;56.00;;;;;;6192250;23;19904;-85
2022/03/24 12:01:02;;;;;;;;;;;16.40;56.50;;;;;;6191875;23;19919;-85
2022/03/24 12:03:37;;;;;;;;;;;16.40;56.40;;;;;;6191966;23;19904;-85
2022/03/24 12:06:05;;;;;;;;;;;16.50;56.30;;;;;;6192066;23;19958;-84
2022/03/24 12:08:50;;;;;;;;;;;16.60;56.70;;;;;;6191841;23;19904;-85
2022/03/24 12:11:38;;;;;;;;;;;16.60;56.40;;;;;;6192105;23;19991;-85
2022/03/24 12:14:16;;;;;;;;;;;16.60;56.80;;;;;;6191912;23;19907;-85
2022/03/24 12:16:51;;;;;;;;;;;16.60;57.10;;;;;;6192392;23;20007;-85
2022/03/24 12:19:50;;;;;;;;;;;16.70;56.30;;;;;;6191965;23;19904;-85
2022/03/24 12:22:32;;;;;;;;;;;16.70;56.10;;;;;;6127603;23;19916;-85
2022/03/24 12:25:01;;;;;;;;;;;16.80;56.50;;;;;;6192060;23;20290;-85
2022/03/24 12:27:30;;;;;;;;;;;16.80;53.50;;;;;;6191835;23;19904;-85
2022/03/24 12:30:12;;;;;;;;;;;16.80;53.50;;;;;;6191465;23;20360;-85
2022/03/24 12:32:46;;;;;;;;;;;16.90;54.20;;;;;;6192276;23;19904;-85
2022/03/24 12:35:32;;;;;;;;;;;16.90;54.00;;;;;;6191564;23;19904;-85
2022/03/24 12:38:00;;;;;;;;;;;16.90;53.70;;;;;;6170358;23;19916;-85
2022/03/24 12:40:26;;;;;;;;;;;17.00;53.00;;;;;;6191539;23;19904;-85
2022/03/24 12:43:12;;;;;;;;;;;17.10;52.80;;;;;;6191959;23;19958;-85
2022/03/24 12:45:38;;;;;;;;;;;17.10;52.10;;;;;;6191227;23;20380;-85
2022/03/24 12:48:11;;;;;;;;;;;17.10;52.80;;;;;;6191770;23;19907;-85
2022/03/24 12:50:39;;;;;;;;;;;17.10;52.60;;;;;;6191805;23;20361;-85
2022/03/24 12:53:06;;;;;;;;;;;17.10;52.90;;;;;;6191246;23;19983;-85
2022/03/24 12:55:33;;;;;;;;;;;17.20;53.30;;;;;;6191837;23;19904;-85
2022/03/24 12:57:59;;;;;;;;;;;17.20;52.70;;;;;;6191715;23;20329;-85
2022/03/24 13:00:26;;;;;;;;;;;17.20;53.10;;;;;;6191768;23;19904;-85
2022/03/24 13:03:01;;;;;;;;;;;17.30;53.40;;;;;;6191673;23;20307;-85
2022/03/24 13:05:30;;;;;;;;;;;17.20;53.60;;;;;;6191442;23;19904;-84
2022/03/24 13:07:59;;;;;;;;;;;17.20;53.90;;;;;;6191392;23;19908;-85
2022/03/24 13:10:31;;;;;;;;;;;17.30;54.20;;;;;;6192355;23;19927;-84
2022/03/24 13:12:58;;;;;;;;;;;17.30;53.60;;;;;;6191575;23;19911;-85
2022/03/24 13:15:25;;;;;;;;;;;17.30;53.90;;;;;;6191975;23;19908;-85
2022/03/24 13:17:54;;;;;;;;;;;17.30;54.20;;;;;;6191584;23;19986;-85
2022/03/24 13:20:20;;;;;;;;;;;17.30;53.60;;;;;;6191930;23;19904;-85
2022/03/24 13:22:48;;;;;;;;;;;17.40;53.50;;;;;;6192600;23;19939;-85
2022/03/24 13:25:17;;;;;;;;;;;17.40;53.50;;;;;;6194609;23;20380;-85
2022/03/24 13:27:49;;;;;;;;;;;17.30;53.70;;;;;;6214885;22;19893;-85
2022/03/24 13:30:23;;;;;;;;;;;17.30;53.80;;;;;;6218512;22;19900;-84
2022/03/24 13:32:50;;;;;;;;;;;17.40;54.00;;;;;;6218331;23;19899;-84
2022/03/24 13:35:17;;;;;;;;;;;17.40;53.90;;;;;;6210624;23;19906;-85
2022/03/24 13:37:44;;;;;;;;;;;17.40;54.00;;;;;;6192849;23;20011;-85
2022/03/24 13:40:11;;;;;;;;;;;17.40;54.00;;;;;;6191944;23;20365;-85
2022/03/24 13:42:37;;;;;;;;;;;17.40;53.70;;;;;;6192082;23;19912;-85
2022/03/24 13:45:10;;;;;;;;;;;17.50;53.50;;;;;;6216260;23;19911;-84
2022/03/24 13:47:41;;;;;;;;;;;17.50;51.30;;;;;;6216063;23;19951;-85
2022/03/24 13:50:10;;;;;;;;;;;17.50;50.10;;;;;;6191114;23;19904;-85
2022/03/24 13:52:38;;;;;;;;;;;17.60;50.10;;;;;;6191030;23;19911;-85
2022/03/24 13:55:11;;;;;;;;;;;17.60;51.30;;;;;;6217135;23;20357;-84
2022/03/24 13:57:46;;;;;;;;;;;17.60;49.20;;;;;;6191016;23;19940;-85
2022/03/24 14:00:21;;;;;;;;;;;17.60;47.80;;;;;;6190678;23;20230;-85
2022/03/24 14:02:47;;;;;;;;;;;17.70;47.60;;;;;;6190968;23;19912;-85
2022/03/24 14:05:17;;;;;;;;;;;17.70;47.90;;;;;;6191100;23;19904;-85
2022/03/24 14:07:56;;;;;;;;;;;17.70;48.80;;;;;;6218125;23;20179;-84
2022/03/24 14:10:25;;;;;;;;;;;17.70;48.70;;;;;;6191206;23;19904;-85
2022/03/24 14:12:55;;;;;;;;;;;17.80;46.80;;;;;;6190402;23;19904;-84
2022/03/24 14:15:21;;;;;;;;;;;17.80;46.40;;;;;;6191100;23;19987;-85
2022/03/24 14:18:11;;;;;;;;;;;17.80;46.90;;;;;;6191300;23;19904;-85
2022/03/24 14:20:51;;;;;;;;;;;17.80;47.60;;;;;;6190996;23;19918;-84
2022/03/24 14:23:46;;;;;;;;;;;17.80;48.20;;;;;;6191213;23;19910;-85
2022/03/24 14:26:12;;;;;;;;;;;17.80;49.10;;;;;;6172267;23;19946;-85
2022/03/24 14:28:39;;;;;;;;;;;17.90;48.10;;;;;;6191259;23;19904;-85
2022/03/24 14:31:16;;;;;;;;;;;17.90;46.20;;;;;;6191133;23;19975;-85
2022/03/24 14:34:00;;;;;;;;;;;17.90;45.20;;;;;;6191906;23;19904;-85
2022/03/24 14:36:26;;;;;;;;;;;17.90;44.80;;;;;;6190850;23;19958;-85
2022/03/24 14:39:18;;;;;;;;;;;17.90;45.30;;;;;;6194682;23;19911;-85
2022/03/24 14:41:50;;;;;;;;;;;17.90;45.50;;;;;;6200956;23;20365;-85
2022/03/24 14:44:20;;;;;;;;;;;17.90;44.90;;;;;;6202021;23;19935;-85
2022/03/24 14:46:46;;;;;;;;;;;17.90;44.50;;;;;;6203809;23;19903;-85
2022/03/24 14:49:13;;;;;;;;;;;17.90;44.60;;;;;;6204806;23;19904;-85
2022/03/24 14:51:41;;;;;;;;;;;17.90;44.10;;;;;;6212716;23;19911;-84
2022/03/24 14:54:15;;;;;;;;;;;17.90;44.80;;;;;;6217908;22;19892;-85
2022/03/24 14:56:41;;;;;;;;;;;17.90;45.70;;;;;;6217223;23;19892;-86
2022/03/24 14:59:24;;;;;;;;;;;;;;;;;;;;;
2022/03/24 15:01:55;;;;;;;;;;;17.90;46.00;;;;;;6219662;22;19916;-85
2022/03/24 15:04:28;;;;;;;;;;;17.90;46.40;;;;;;6216555;23;19908;-85
2022/03/24 15:06:54;;;;;;;;;;;17.90;45.70;;;;;;6204593;23;19944;-85
2022/03/24 15:09:20;;;;;;;;;;;17.90;46.20;;;;;;6224678;23;19910;-85
2022/03/24 15:11:53;;;;;;;;;;;17.90;46.10;;;;;;6197644;23;19911;-85
2022/03/24 15:17:10;;;;;;;;;;;18.00;46.20;;;;;;6224201;23;19911;-84
2022/03/24 15:19:38;;;;;;;;;;;18.00;45.00;;;;;;6237962;23;19895;-85
2022/03/24 15:22:05;;;;;;;;;;;18.00;45.70;;;;;;6219454;22;19900;-84
2022/03/24 15:24:32;;;;;;;;;;;18.20;45.60;;;;;;6219761;23;19919;-85
2022/03/24 15:27:00;;;;;;;;;;;18.20;45.90;;;;;;6216769;23;19888;-85
2022/03/24 15:29:28;;;;;;;;;;;18.30;46.10;;;;;;6207634;23;19904;-85
2022/03/24 15:31:56;;;;;;;;;;;18.30;46.00;;;;;;6171404;23;19912;-83
2022/03/24 15:34:32;;;;;;;;;;;18.30;46.40;;;;;;6194165;23;19952;-85
2022/03/24 15:36:59;;;;;;;;;;;18.20;46.90;;;;;;6169754;23;19942;-85
2022/03/24 15:39:29;;;;;;;;;;;18.10;46.70;;;;;;6220483;23;19909;-86
2022/03/24 15:41:55;;;;;;;;;;;18.00;45.50;;;;;;6193313;23;19911;-85
2022/03/24 15:44:44;;;;;;;;;;;18.00;45.10;;;;;;6193177;23;20367;-84
2022/03/24 15:47:14;;;;;;;;;;;18.00;45.60;;;;;;6192538;23;19985;-87